Terminal Aerodrome Forecast
Issued by NWS

Home | Current Version | Previous Version | Text Only | Print | Product List | Glossary On
Versions: 1 2 3 4 5 6 7 8 9 10 11 12 13
000
FTUS45 KTFX 212344
TAFGTF
TAF
KGTF 212344Z 2200/2224 06007KT P6SM SCT060 BKN120
     FM220400 03011KT P6SM SCT030 OVC070
      TEMPO 2208/2212 4SM -RA BR SCT012 OVC025
     FM221200 02010KT 1SM -RASN BR SCT008 OVC015
     FM221600 03007KT 4SM -RA BR OVC015=

USA.gov is the U.S. government's official web portal to all federal, state and local government web resources and services.